createdAt,value
2018-04-26T00:00:51.667Z,83.19
2018-04-26T00:03:26.554Z,83.25
2018-04-26T00:06:01.080Z,83.31
2018-04-26T00:08:35.987Z,83.41
2018-04-26T00:11:10.743Z,83.37
2018-04-26T00:13:45.690Z,83.32
2018-04-26T00:16:20.556Z,83.32
2018-04-26T00:18:55.628Z,83.23
2018-04-26T00:21:30.807Z,83.23
2018-04-26T00:24:05.891Z,83.32
2018-04-26T00:26:41.074Z,83.60
2018-04-26T00:29:16.129Z,83.76
2018-04-26T00:31:51.106Z,83.76
2018-04-26T00:34:25.920Z,84.03
2018-04-26T00:37:01.004Z,84.39
2018-04-26T00:39:36.286Z,84.57
2018-04-26T00:42:11.462Z,84.64
2018-04-26T00:44:46.266Z,84.54
2018-04-26T00:47:21.051Z,84.65
2018-04-26T00:49:56.021Z,84.89
2018-04-26T00:52:31.098Z,85.07
2018-04-26T00:55:05.879Z,85.24
2018-04-26T00:57:40.972Z,85.36
2018-04-26T01:00:15.760Z,85.45
2018-04-26T01:02:50.647Z,85.54
2018-04-26T01:05:25.636Z,85.72
2018-04-26T01:08:00.555Z,85.85
2018-04-26T01:10:35.290Z,85.91
2018-04-26T01:13:10.403Z,85.97
2018-04-26T01:15:45.382Z,86.02
2018-04-26T01:18:20.495Z,86.06
2018-04-26T01:20:55.498Z,86.07
2018-04-26T01:23:30.306Z,86.17
2018-04-26T01:26:05.312Z,86.23
2018-04-26T01:28:40.482Z,86.24
2018-04-26T01:31:15.635Z,85.94
2018-04-26T01:33:50.818Z,86.02
2018-04-26T01:36:37.128Z,85.80
2018-04-26T01:39:11.990Z,86.10
2018-04-26T01:41:46.778Z,86.48
2018-04-26T01:44:21.850Z,86.94
2018-04-26T01:46:56.830Z,87.07
2018-04-26T01:49:32.058Z,87.49
2018-04-26T01:52:07.146Z,87.85
2018-04-26T01:54:41.990Z,88.13
2018-04-26T01:57:16.978Z,88.49
2018-04-26T01:59:52.003Z,89.09
2018-04-26T02:02:26.884Z,89.23
2018-04-26T02:05:01.780Z,89.26
2018-04-26T02:07:36.666Z,89.23
2018-04-26T02:10:11.623Z,89.37
2018-04-26T02:12:46.941Z,89.55
2018-04-26T02:15:21.951Z,89.99
2018-04-26T02:17:57.155Z,89.96
2018-04-26T02:20:32.043Z,89.66
2018-04-26T02:23:06.806Z,89.15
2018-04-26T02:25:41.984Z,89.50
2018-04-26T02:28:17.062Z,89.61
2018-04-26T02:30:52.138Z,89.39
2018-04-26T02:33:27.127Z,89.16
2018-04-26T02:36:02.326Z,89.23
2018-04-26T02:38:37.412Z,89.23
2018-04-26T02:41:12.410Z,88.61
2018-04-26T02:43:47.423Z,88.29
2018-04-26T02:46:22.511Z,87.69
2018-04-26T02:48:57.423Z,88.07
2018-04-26T02:51:32.277Z,87.62
2018-04-26T02:54:07.463Z,87.69
2018-04-26T02:56:42.385Z,87.73
2018-04-26T02:59:17.063Z,87.52
2018-04-26T03:01:52.077Z,87.18
2018-04-26T03:04:27.039Z,87.19
2018-04-26T03:07:02.256Z,87.27
2018-04-26T03:09:37.131Z,87.01
2018-04-26T03:12:12.118Z,87.05
2018-04-26T03:14:47.115Z,87.00
2018-04-26T03:17:21.890Z,86.41
2018-04-26T03:19:56.762Z,86.94
2018-04-26T03:22:31.835Z,86.98
2018-04-26T03:25:06.826Z,87.33
2018-04-26T03:27:41.906Z,87.47
2018-04-26T03:30:16.910Z,88.29
2018-04-26T03:32:51.695Z,88.20
2018-04-26T03:35:26.593Z,88.63
2018-04-26T03:38:01.503Z,88.88
2018-04-26T03:40:36.695Z,89.09
2018-04-26T03:43:11.478Z,89.45
2018-04-26T03:45:45.899Z,89.58
2018-04-26T03:48:21.034Z,89.74
2018-04-26T03:50:56.126Z,90.21
2018-04-26T03:53:31.126Z,90.37
2018-04-26T03:56:06.211Z,90.46
2018-04-26T03:58:40.796Z,90.50
2018-04-26T04:01:27.190Z,90.89
2018-04-26T04:04:12.935Z,90.70
2018-04-26T04:06:47.517Z,91.06
2018-04-26T04:09:22.611Z,91.47
2018-04-26T04:11:57.497Z,91.50
2018-04-26T04:14:32.276Z,91.77
2018-04-26T04:17:07.254Z,91.48
2018-04-26T04:19:42.039Z,91.33
2018-04-26T04:22:17.016Z,91.34
2018-04-26T04:24:51.947Z,91.47
2018-04-26T04:27:26.714Z,91.10
2018-04-26T04:30:01.596Z,90.67
2018-04-26T04:32:36.479Z,90.60
2018-04-26T04:35:11.529Z,90.39
2018-04-26T04:37:46.857Z,90.38
2018-04-26T04:40:21.740Z,90.73
2018-04-26T04:42:56.740Z,90.79
2018-04-26T04:45:31.610Z,91.54
2018-04-26T04:48:06.702Z,92.05
2018-04-26T04:50:41.722Z,92.55
2018-04-26T04:53:16.373Z,92.86
2018-04-26T04:55:51.375Z,93.09
2018-04-26T04:58:26.367Z,92.89
2018-04-26T05:01:01.181Z,93.27
2018-04-26T05:03:36.377Z,93.26
2018-04-26T05:06:11.490Z,93.32
2018-04-26T05:08:46.276Z,93.44
2018-04-26T05:11:21.238Z,93.66
2018-04-26T05:13:56.121Z,93.76
2018-04-26T05:16:31.412Z,93.65
2018-04-26T05:19:06.286Z,93.75
2018-04-26T05:21:40.926Z,93.34
2018-04-26T05:24:15.893Z,93.19
2018-04-26T05:26:50.816Z,92.83
2018-04-26T05:29:25.701Z,92.83
2018-04-26T05:32:00.665Z,93.12
2018-04-26T05:34:35.784Z,92.68
2018-04-26T05:37:10.660Z,92.80
2018-04-26T05:39:45.945Z,92.99
2018-04-26T05:42:20.985Z,93.07
2018-04-26T05:44:55.875Z,92.86
2018-04-26T05:47:30.795Z,92.35
2018-04-26T05:50:05.295Z,92.30
2018-04-26T05:52:40.582Z,91.46
2018-04-26T05:55:15.467Z,91.76
2018-04-26T05:57:50.302Z,92.07
2018-04-26T06:00:25.177Z,91.91
2018-04-26T06:03:00.163Z,91.61
2018-04-26T06:05:35.358Z,91.33
2018-04-26T06:08:10.242Z,90.90
2018-04-26T06:10:45.250Z,90.77
2018-04-26T06:13:20.151Z,90.94
2018-04-26T06:15:55.018Z,91.59
2018-04-26T06:18:29.806Z,91.42
2018-04-26T06:21:04.677Z,91.80
2018-04-26T06:23:39.858Z,92.23
2018-04-26T06:26:14.968Z,92.69
2018-04-26T06:28:49.970Z,93.20
2018-04-26T06:31:24.835Z,93.61
2018-04-26T06:34:00.027Z,93.73
2018-04-26T06:36:34.817Z,93.96
2018-04-26T06:39:09.399Z,94.05
2018-04-26T06:41:43.874Z,94.25
2018-04-26T06:44:18.888Z,94.63
2018-04-26T06:46:53.688Z,94.51
2018-04-26T06:49:28.894Z,94.58
2018-04-26T06:52:03.635Z,95.34
2018-04-26T06:54:38.926Z,95.61
2018-04-26T06:57:13.801Z,93.96
2018-04-26T06:59:48.750Z,93.74
2018-04-26T07:02:23.925Z,93.87
2018-04-26T07:04:58.739Z,93.89
2018-04-26T07:07:33.609Z,93.87
2018-04-26T07:10:08.316Z,94.23
2018-04-26T07:12:43.385Z,94.23
2018-04-26T07:15:18.461Z,94.39
2018-04-26T07:17:53.723Z,94.41
2018-04-26T07:20:28.715Z,94.19
2018-04-26T07:23:03.795Z,95.10
2018-04-26T07:25:38.678Z,95.29
2018-04-26T07:28:13.663Z,95.01
2018-04-26T07:30:48.881Z,94.72
2018-04-26T07:33:23.862Z,94.94
2018-04-26T07:35:58.843Z,94.64
2018-04-26T07:38:34.046Z,94.48
2018-04-26T07:41:09.218Z,93.50
2018-04-26T07:43:44.197Z,93.00
2018-04-26T07:46:19.199Z,92.29
2018-04-26T07:48:54.289Z,91.44
2018-04-26T07:51:29.306Z,92.00
2018-04-26T07:54:04.189Z,92.23
2018-04-26T07:56:39.074Z,91.96
2018-04-26T07:59:13.950Z,92.23
2018-04-26T08:01:49.186Z,92.03
2018-04-26T08:04:24.082Z,91.57
2018-04-26T08:06:58.978Z,91.52
2018-04-26T08:09:34.061Z,91.64
2018-04-26T08:12:08.944Z,91.78
2018-04-26T08:14:43.922Z,91.76
2018-04-26T08:17:18.794Z,91.77
2018-04-26T08:19:53.573Z,91.92
2018-04-26T08:22:30.562Z,92.16
2018-04-26T08:25:05.329Z,91.14
2018-04-26T08:27:40.159Z,90.50
2018-04-26T08:30:14.708Z,89.28
2018-04-26T08:32:49.810Z,89.29
2018-04-26T08:35:24.794Z,89.26
2018-04-26T08:37:59.734Z,88.40
2018-04-26T08:40:34.369Z,88.21
2018-04-26T08:43:09.447Z,88.22
2018-04-26T08:45:44.234Z,89.28
2018-04-26T08:48:19.206Z,89.18
2018-04-26T08:50:54.089Z,89.55
2018-04-26T08:53:28.529Z,90.12
2018-04-26T08:56:02.786Z,89.03
2018-04-26T08:58:37.962Z,89.33
2018-04-26T09:01:12.969Z,88.51
2018-04-26T09:03:47.968Z,87.69
2018-04-26T09:06:22.875Z,85.98
2018-04-26T09:08:57.758Z,83.54
2018-04-26T09:11:32.650Z,83.67
2018-04-26T09:14:07.639Z,82.84
2018-04-26T09:16:42.191Z,82.32
2018-04-26T09:19:17.390Z,82.18
2018-04-26T09:21:52.224Z,83.36
2018-04-26T09:24:27.521Z,83.28
2018-04-26T09:27:02.699Z,81.65
2018-04-26T09:29:37.146Z,79.79
2018-04-26T09:32:12.434Z,80.24
2018-04-26T09:34:47.609Z,78.39
2018-04-26T09:37:22.387Z,77.25
2018-04-26T09:39:57.498Z,77.74
2018-04-26T09:42:32.694Z,76.32
2018-04-26T09:45:07.877Z,73.11
2018-04-26T09:47:42.749Z,73.94
2018-04-26T09:50:17.942Z,75.19
2018-04-26T09:52:52.630Z,75.75
2018-04-26T09:55:27.772Z,75.01
2018-04-26T09:58:02.617Z,75.19
2018-04-26T10:00:42.471Z,77.23
2018-04-26T10:03:17.347Z,76.32
2018-04-26T10:05:57.998Z,78.14
2018-04-26T10:08:33.078Z,78.39
2018-04-26T10:11:07.927Z,75.37
2018-04-26T10:13:43.015Z,74.39
2018-04-26T10:16:17.919Z,77.93
2018-04-26T10:18:53.090Z,81.06
2018-04-26T10:21:28.277Z,83.47
2018-04-26T10:24:03.443Z,84.83
2018-04-26T10:26:38.332Z,85.66
2018-04-26T10:29:13.429Z,86.42
2018-04-26T10:31:48.942Z,86.40
2018-04-26T10:34:23.926Z,86.48
2018-04-26T10:36:59.203Z,86.66
2018-04-26T10:39:34.391Z,79.43
2018-04-26T10:42:09.087Z,78.13
2018-04-26T10:44:43.789Z,79.84
2018-04-26T10:47:18.770Z,77.16
2018-04-26T10:49:53.530Z,75.88
2018-04-26T10:52:28.631Z,74.99
2018-04-26T10:55:03.438Z,73.16
2018-04-26T10:57:38.245Z,75.13
2018-04-26T11:00:12.416Z,76.63
2018-04-26T11:02:47.388Z,71.76
2018-04-26T11:05:22.474Z,74.03
2018-04-26T11:07:57.443Z,73.30
2018-04-26T11:10:32.490Z,72.28
2018-04-26T11:13:07.719Z,68.92
2018-04-26T11:15:42.740Z,71.50
2018-04-26T11:18:17.706Z,67.72
2018-04-26T11:20:52.499Z,67.75
2018-04-26T11:23:27.366Z,64.50
2018-04-26T11:26:02.019Z,63.50
2018-04-26T11:28:37.002Z,62.46
2018-04-26T11:31:12.005Z,62.19
2018-04-26T11:33:47.016Z,65.27
2018-04-26T11:36:22.011Z,62.81
2018-04-26T11:38:57.122Z,64.63
2018-04-26T11:41:32.227Z,63.05
2018-04-26T11:44:07.224Z,61.27
2018-04-26T11:46:41.877Z,62.31
2018-04-26T11:49:16.840Z,61.15
2018-04-26T11:51:51.615Z,58.04
2018-04-26T11:54:26.513Z,59.83
2018-04-26T11:57:01.299Z,61.52
2018-04-26T11:59:36.318Z,59.86
2018-04-26T12:02:11.215Z,60.08
2018-04-26T12:04:46.019Z,59.94
2018-04-26T12:07:21.019Z,58.63
2018-04-26T12:09:55.899Z,60.25
2018-04-26T12:12:30.831Z,60.70
2018-04-26T12:15:05.810Z,61.09
2018-04-26T12:17:41.057Z,57.53
2018-04-26T12:20:16.077Z,57.07
2018-04-26T12:22:51.185Z,57.75
2018-04-26T12:25:26.071Z,59.16
2018-04-26T12:28:01.078Z,58.68
2018-04-26T12:30:36.078Z,59.75
2018-04-26T12:33:10.855Z,58.84
2018-04-26T12:35:45.836Z,59.63
2018-04-26T12:38:20.711Z,61.54
2018-04-26T12:40:55.094Z,59.19
2018-04-26T12:43:30.190Z,62.14
2018-04-26T12:46:05.383Z,64.71
2018-04-26T12:48:40.421Z,69.74
2018-04-26T12:51:15.306Z,70.57
2018-04-26T12:53:50.278Z,71.80
2018-04-26T12:56:25.286Z,69.67
2018-04-26T12:59:00.063Z,70.42
2018-04-26T13:01:35.038Z,71.10
2018-04-26T13:04:09.923Z,71.41
2018-04-26T13:06:44.626Z,68.74
2018-04-26T13:09:19.599Z,67.13
2018-04-26T13:11:54.154Z,65.29
2018-04-26T13:14:29.360Z,65.55
2018-04-26T13:17:04.466Z,65.66
2018-04-26T13:19:39.237Z,66.74
2018-04-26T13:22:14.326Z,67.04
2018-04-26T13:24:49.370Z,68.41
2018-04-26T13:27:24.399Z,68.61
2018-04-26T13:29:59.490Z,68.42
2018-04-26T13:32:34.294Z,66.85
2018-04-26T13:35:09.111Z,67.21
2018-04-26T13:37:43.997Z,65.98
2018-04-26T13:40:18.754Z,65.76
2018-04-26T13:42:53.634Z,65.65
2018-04-26T13:45:28.795Z,65.26
2018-04-26T13:48:03.887Z,65.37
2018-04-26T13:50:38.877Z,65.06
2018-04-26T13:53:13.771Z,65.29
2018-04-26T13:55:48.655Z,66.00
2018-04-26T13:58:23.662Z,65.45
2018-04-26T14:00:58.542Z,64.03
2018-04-26T14:03:33.313Z,63.91
2018-04-26T14:06:08.409Z,65.11
2018-04-26T14:08:43.097Z,65.43
2018-04-26T14:11:18.098Z,65.70
2018-04-26T14:13:53.226Z,65.87
2018-04-26T14:16:28.138Z,66.01
2018-04-26T14:19:02.954Z,65.35
2018-04-26T14:21:37.942Z,65.65
2018-04-26T14:24:13.126Z,67.49
2018-04-26T14:26:47.803Z,67.21
2018-04-26T14:29:22.763Z,67.44
2018-04-26T14:31:57.575Z,67.40
2018-04-26T14:34:32.858Z,66.50
2018-04-26T14:37:07.670Z,67.24
2018-04-26T14:39:42.657Z,67.47
2018-04-26T14:42:17.746Z,66.97
2018-04-26T14:44:52.604Z,68.37
2018-04-26T14:47:27.405Z,67.80
2018-04-26T14:50:02.300Z,67.75
2018-04-26T14:52:36.894Z,68.65
2018-04-26T14:55:11.455Z,69.16
2018-04-26T14:57:45.942Z,71.06
2018-04-26T15:00:21.065Z,70.63
2018-04-26T15:02:56.149Z,71.14
2018-04-26T15:05:31.362Z,70.86
2018-04-26T15:08:06.470Z,71.49
2018-04-26T15:10:40.851Z,68.77
2018-04-26T15:13:15.747Z,67.47
2018-04-26T15:15:50.835Z,65.60
2018-04-26T15:18:25.829Z,65.51
2018-04-26T15:21:00.641Z,65.27
2018-04-26T15:23:35.786Z,64.89
2018-04-26T15:26:10.582Z,64.29
2018-04-26T15:28:45.502Z,63.66
2018-04-26T15:31:20.298Z,63.29
2018-04-26T15:33:55.269Z,63.41
2018-04-26T15:36:30.257Z,64.16
2018-04-26T15:39:05.181Z,64.04
2018-04-26T15:41:39.766Z,66.80
2018-04-26T15:44:14.844Z,71.73
2018-04-26T15:46:49.799Z,73.53
2018-04-26T15:49:24.824Z,75.39
2018-04-26T15:51:59.709Z,75.30
2018-04-26T15:54:35.156Z,76.33
2018-04-26T15:57:26.218Z,76.49
2018-04-26T16:00:12.332Z,74.65
2018-04-26T16:03:04.161Z,72.48
2018-04-26T16:05:49.579Z,70.35
2018-04-26T16:11:40.853Z,68.21
2018-04-26T16:14:32.518Z,67.76
2018-04-26T16:17:32.730Z,66.80
2018-04-26T16:23:39.062Z,67.29
2018-04-26T16:26:25.563Z,68.64
2018-04-26T16:29:17.274Z,69.33
2018-04-26T16:32:08.810Z,68.78
2018-04-26T16:38:03.762Z,69.78
2018-04-26T16:40:38.578Z,69.92
2018-04-26T16:43:13.096Z,70.84
2018-04-26T16:45:47.616Z,68.57
2018-04-26T16:48:22.290Z,69.39
2018-04-26T16:50:56.803Z,69.66
2018-04-26T16:53:31.416Z,68.83
2018-04-26T16:56:05.594Z,69.46
2018-04-26T16:58:40.386Z,69.67
2018-04-26T17:01:15.202Z,70.37
2018-04-26T17:03:49.930Z,70.96
2018-04-26T17:06:24.429Z,71.37
2018-04-26T17:08:59.003Z,71.62
2018-04-26T17:11:33.635Z,72.10
2018-04-26T17:14:09.137Z,73.01
2018-04-26T17:16:43.933Z,75.83
2018-04-26T17:19:18.549Z,78.19
2018-04-26T17:21:53.063Z,78.88
2018-04-26T17:24:27.667Z,80.01
2018-04-26T17:27:02.366Z,79.69
2018-04-26T17:29:37.092Z,80.33
2018-04-26T17:32:11.991Z,80.48
2018-04-26T17:34:47.833Z,80.02
2018-04-26T17:37:23.003Z,80.24
2018-04-26T17:39:57.684Z,80.24
2018-04-26T17:42:32.389Z,77.64
2018-04-26T17:45:06.907Z,77.90
2018-04-26T17:47:41.549Z,79.82
2018-04-26T17:50:16.290Z,78.27
2018-04-26T17:52:50.921Z,77.93
2018-04-26T17:55:25.690Z,76.55
2018-04-26T17:58:00.282Z,72.71
2018-04-26T18:00:34.994Z,74.07
2018-04-26T18:03:09.591Z,74.38
2018-04-26T18:05:44.123Z,76.89
2018-04-26T18:08:18.719Z,74.61
2018-04-26T18:10:53.134Z,75.23
2018-04-26T18:13:27.858Z,74.88
2018-04-26T18:16:05.084Z,75.11
2018-04-26T18:18:40.059Z,75.10
2018-04-26T18:21:15.651Z,75.78
2018-04-26T18:23:50.851Z,76.96
2018-04-26T18:26:25.408Z,76.91
2018-04-26T18:28:59.781Z,77.29
2018-04-26T18:31:34.678Z,77.80
2018-04-26T18:34:09.824Z,77.09
2018-04-26T18:36:44.856Z,77.98
2018-04-26T18:39:21.867Z,77.93
2018-04-26T18:41:58.488Z,77.34
2018-04-26T18:44:33.686Z,77.54
2018-04-26T18:47:08.207Z,77.70
2018-04-26T18:49:52.678Z,77.81
2018-04-26T18:52:30.495Z,78.31
2018-04-26T18:55:05.604Z,79.08
2018-04-26T19:00:27.622Z,79.26
2018-04-26T19:03:02.312Z,79.92
2018-04-26T19:05:36.893Z,80.30
2018-04-26T19:08:12.778Z,80.38
2018-04-26T19:10:47.423Z,81.06
2018-04-26T19:13:21.795Z,81.78
2018-04-26T19:15:56.309Z,82.32
2018-04-26T19:18:30.863Z,82.08
2018-04-26T19:21:05.399Z,82.95
2018-04-26T19:23:40.100Z,83.52
2018-04-26T19:26:15.052Z,84.12
2018-04-26T19:28:50.104Z,84.83
2018-04-26T19:31:24.721Z,84.52
2018-04-26T19:33:59.750Z,84.65
2018-04-26T19:36:35.108Z,84.40
2018-04-26T19:39:09.707Z,84.70
2018-04-26T19:41:44.852Z,85.03
2018-04-26T19:44:20.203Z,85.01
2018-04-26T19:46:55.537Z,84.88
2018-04-26T19:49:30.286Z,84.66
2018-04-26T19:52:04.854Z,84.74
2018-04-26T19:54:39.536Z,84.78
2018-04-26T19:57:14.434Z,84.55
2018-04-26T19:59:49.121Z,84.84
2018-04-26T20:02:23.908Z,84.97
2018-04-26T20:04:58.601Z,85.17
2018-04-26T20:07:33.434Z,84.90
2018-04-26T20:10:08.146Z,84.88
2018-04-26T20:12:43.278Z,84.93
2018-04-26T20:15:18.262Z,85.25
2018-04-26T20:17:53.072Z,85.50
2018-04-26T20:20:27.582Z,85.45
2018-04-26T20:23:02.131Z,85.04
2018-04-26T20:25:37.162Z,85.03
2018-04-26T20:28:12.292Z,84.43
2018-04-26T20:30:46.891Z,84.11
2018-04-26T20:33:21.302Z,84.48
2018-04-26T20:35:55.878Z,84.69
2018-04-26T20:38:30.487Z,84.84
2018-04-26T20:41:05.107Z,84.98
2018-04-26T20:43:39.729Z,87.45
2018-04-26T20:46:14.017Z,89.87
2018-04-26T20:48:49.012Z,85.70
2018-04-26T20:51:23.608Z,81.49
2018-04-26T20:53:58.129Z,77.79
2018-04-26T20:56:32.875Z,73.90
2018-04-26T20:59:08.337Z,73.08
2018-04-26T21:01:43.018Z,71.71
2018-04-26T21:04:17.726Z,70.82
2018-04-26T21:06:52.312Z,70.15
2018-04-26T21:09:27.110Z,68.32
2018-04-26T21:12:01.798Z,68.42
2018-04-26T21:14:36.498Z,69.62
2018-04-26T21:17:11.078Z,71.26
2018-04-26T21:19:45.207Z,73.12
2018-04-26T21:22:20.090Z,74.57
2018-04-26T21:24:54.819Z,75.58
2018-04-26T21:27:29.438Z,76.24
2018-04-26T21:30:03.651Z,77.21
2018-04-26T21:32:40.263Z,78.17
2018-04-26T21:35:15.451Z,79.07
2018-04-26T21:37:50.043Z,80.07
2018-04-26T21:40:24.636Z,81.09
2018-04-26T21:42:59.143Z,82.34
2018-04-26T21:45:33.627Z,83.18
2018-04-26T21:48:08.322Z,83.72
2018-04-26T21:50:48.603Z,83.68
2018-04-26T21:53:28.373Z,83.79
2018-04-26T21:56:08.915Z,83.82
2018-04-26T21:58:49.393Z,83.75
2018-04-26T22:01:29.840Z,83.91
2018-04-26T22:04:05.878Z,84.15
2018-04-26T22:06:40.750Z,85.32
2018-04-26T22:09:15.459Z,85.90
2018-04-26T22:11:49.957Z,86.30
2018-04-26T22:14:24.690Z,86.54
2018-04-26T22:16:59.274Z,86.56
2018-04-26T22:19:34.063Z,86.54
2018-04-26T22:22:08.751Z,86.50
2018-04-26T22:24:43.615Z,86.60
2018-04-26T22:27:18.302Z,87.18
2018-04-26T22:29:52.974Z,87.31
2018-04-26T22:32:27.795Z,86.78
2018-04-26T22:35:02.392Z,86.56
2018-04-26T22:37:37.076Z,86.47
2018-04-26T22:40:11.809Z,86.39
2018-04-26T22:42:46.301Z,86.30
2018-04-26T22:45:20.979Z,86.30
2018-04-26T22:47:55.762Z,86.69
2018-04-26T22:50:30.454Z,87.28
2018-04-26T22:53:05.046Z,87.80
2018-04-26T22:55:39.552Z,88.38
2018-04-26T22:58:14.235Z,88.72
2018-04-26T23:00:49.005Z,88.80
2018-04-26T23:03:23.682Z,88.11
2018-04-26T23:05:58.294Z,87.37
2018-04-26T23:08:33.086Z,86.64
2018-04-26T23:11:07.869Z,85.80
2018-04-26T23:13:42.578Z,85.49
2018-04-26T23:16:17.202Z,85.25
2018-04-26T23:18:51.804Z,85.00
2018-04-26T23:21:26.482Z,85.22
2018-04-26T23:24:01.058Z,85.46
2018-04-26T23:26:35.868Z,85.58
2018-04-26T23:29:10.438Z,85.63
2018-04-26T23:31:45.026Z,85.61
2018-04-26T23:34:19.745Z,85.68
2018-04-26T23:36:54.329Z,85.96
2018-04-26T23:39:28.910Z,85.77
2018-04-26T23:42:03.499Z,85.87
2018-04-26T23:44:38.019Z,85.95
2018-04-26T23:47:12.597Z,85.96
2018-04-26T23:49:47.446Z,86.13
2018-04-26T23:52:22.028Z,86.21
2018-04-26T23:54:56.706Z,86.45
2018-04-26T23:57:31.302Z,86.98
